Terminal Aerodrome Forecast
Issued by NWS

Home | Current Version | Previous Version | Graphics & Text | Print | Product List | Glossary On
Versions: 1 2 3 4 5 6 7 8 9 10 11 12 13 14 15
000
FTUS43 KBIS 241129
TAFJMS
TAF
KJMS 241129Z 2412/2512 31013G21KT P6SM SCT020
     FM241900 32019G27KT P6SM BKN035
     FM250200 33013KT P6SM SCT040
     FM250600 31005KT P6SM FEW035=

USA.gov is the U.S. government's official web portal to all federal, state and local government web resources and services.